Time;durP1;ratioP1;P1;durP2;ratioP2;P2;SDS_P1;SDS_P2;PMS_P1;PMS_P2;Temp;Humidity;BMP_temperature;BMP_pressure;BME280_temperature;BME280_humidity;BME280_pressure;Samples;Min_cycle;Max_cycle;Signal;HPM_P1;HPM_P2
2021/04/14 00:01:08;;;;;;;;;;;18.80;50.80;;;;;;5005289;28;20140;-81
2021/04/14 00:03:37;;;;;;;;;;;18.80;50.70;;;;;;5005937;28;20016;-81
2021/04/14 00:06:08;;;;;;;;;;;18.80;50.70;;;;;;4999018;28;20015;-81
2021/04/14 00:08:34;;;;;;;;;;;18.70;50.70;;;;;;4996315;28;19925;-81
2021/04/14 00:11:02;;;;;;;;;;;18.70;50.80;;;;;;4975440;28;19929;-81
2021/04/14 00:13:34;;;;;;;;;;;18.70;50.70;;;;;;4972227;28;19925;-81
2021/04/14 00:16:01;;;;;;;;;;;18.70;50.80;;;;;;5000654;28;19929;-81
2021/04/14 00:18:27;;;;;;;;;;;18.70;50.70;;;;;;4992941;28;19930;-81
2021/04/14 00:20:54;;;;;;;;;;;18.70;50.80;;;;;;4997758;28;19985;-80
2021/04/14 00:23:23;;;;;;;;;;;18.60;50.80;;;;;;4998030;28;19952;-81
2021/04/14 00:25:51;;;;;;;;;;;18.60;50.70;;;;;;4997158;28;19941;-80
2021/04/14 00:28:18;;;;;;;;;;;18.60;51.40;;;;;;4976118;28;19992;-80
2021/04/14 00:30:45;;;;;;;;;;;18.60;50.80;;;;;;4962878;28;19933;-80
2021/04/14 00:33:12;;;;;;;;;;;18.60;50.80;;;;;;4932047;28;19926;-80
2021/04/14 00:35:38;;;;;;;;;;;18.60;50.80;;;;;;4947825;28;19961;-80
2021/04/14 00:38:05;;;;;;;;;;;18.60;50.80;;;;;;4958241;28;19945;-80
2021/04/14 00:40:39;;;;;;;;;;;18.60;50.80;;;;;;4946026;28;19930;-80
2021/04/14 00:43:18;;;;;;;;;;;18.50;50.80;;;;;;4975484;28;19981;-81
2021/04/14 00:45:44;;;;;;;;;;;18.50;50.80;;;;;;4996923;28;19933;-81
2021/04/14 00:48:10;;;;;;;;;;;18.50;50.80;;;;;;4998019;28;19997;-80
2021/04/14 00:50:40;;;;;;;;;;;18.50;50.80;;;;;;5005000;28;20422;-81
2021/04/14 00:53:08;;;;;;;;;;;18.50;50.90;;;;;;5005023;28;20582;-80
2021/04/14 00:55:35;;;;;;;;;;;18.50;50.90;;;;;;5004656;28;19930;-81
2021/04/14 00:58:01;;;;;;;;;;;18.50;50.80;;;;;;5003659;28;19934;-81
2021/04/14 01:00:31;;;;;;;;;;;18.40;50.80;;;;;;5008553;28;19932;-81
2021/04/14 01:03:00;;;;;;;;;;;18.40;50.80;;;;;;4998106;28;19926;-81
2021/04/14 01:05:28;;;;;;;;;;;18.40;50.80;;;;;;5006900;28;19925;-80
2021/04/14 01:07:54;;;;;;;;;;;18.40;50.80;;;;;;4991254;28;19925;-81
2021/04/14 01:10:21;;;;;;;;;;;18.40;50.90;;;;;;5004979;28;20019;-81
2021/04/14 01:12:47;;;;;;;;;;;18.40;50.80;;;;;;4999514;28;20339;-81
2021/04/14 01:15:15;;;;;;;;;;;18.40;50.90;;;;;;5003839;28;20452;-80
2021/04/14 01:17:41;;;;;;;;;;;18.40;50.90;;;;;;5008141;28;20289;-81
2021/04/14 01:20:08;;;;;;;;;;;18.30;50.80;;;;;;5010362;28;19925;-80
2021/04/14 01:22:34;;;;;;;;;;;18.30;50.80;;;;;;5011532;28;19956;-81
2021/04/14 01:25:01;;;;;;;;;;;18.30;50.80;;;;;;5010927;28;19929;-80
2021/04/14 01:27:27;;;;;;;;;;;18.30;50.80;;;;;;5011026;28;20357;-81
2021/04/14 01:29:54;;;;;;;;;;;18.30;50.80;;;;;;5011770;28;19932;-81
2021/04/14 01:32:24;;;;;;;;;;;18.30;50.90;;;;;;4995169;28;19936;-81
2021/04/14 01:34:50;;;;;;;;;;;18.30;50.80;;;;;;4992771;28;20923;-82
2021/04/14 01:37:16;;;;;;;;;;;18.20;50.80;;;;;;5011276;28;19925;-81
2021/04/14 01:39:43;;;;;;;;;;;18.20;50.80;;;;;;5008518;28;20360;-82
2021/04/14 01:42:09;;;;;;;;;;;18.30;50.80;;;;;;5012467;28;19948;-82
2021/04/14 01:44:35;;;;;;;;;;;18.20;50.80;;;;;;5010722;28;19925;-82
2021/04/14 01:47:01;;;;;;;;;;;18.20;50.70;;;;;;5011364;28;20501;-81
2021/04/14 01:49:33;;;;;;;;;;;18.20;50.80;;;;;;5010811;28;19969;-82
2021/04/14 01:52:00;;;;;;;;;;;18.20;50.80;;;;;;5012102;28;19930;-82
2021/04/14 01:54:26;;;;;;;;;;;18.20;50.80;;;;;;5010104;28;19926;-82
2021/04/14 01:56:55;;;;;;;;;;;18.10;50.70;;;;;;5010563;28;20552;-81
2021/04/14 01:59:24;;;;;;;;;;;18.20;50.80;;;;;;5010594;28;20802;-83
2021/04/14 02:01:50;;;;;;;;;;;18.10;50.70;;;;;;5010575;28;19929;-82
2021/04/14 02:04:16;;;;;;;;;;;18.20;50.70;;;;;;5010111;28;19929;-82
2021/04/14 02:06:42;;;;;;;;;;;18.20;50.70;;;;;;5011592;28;19932;-81
2021/04/14 02:09:10;;;;;;;;;;;18.20;50.70;;;;;;5010808;28;19925;-81
2021/04/14 02:11:36;;;;;;;;;;;18.10;50.70;;;;;;4993861;28;19933;-81
2021/04/14 02:14:05;;;;;;;;;;;18.10;50.70;;;;;;5011531;28;19921;-81
2021/04/14 02:16:31;;;;;;;;;;;18.20;50.70;;;;;;5009372;28;20172;-82
2021/04/14 02:18:57;;;;;;;;;;;18.10;50.70;;;;;;4993554;28;19933;-82
2021/04/14 02:21:23;;;;;;;;;;;18.10;50.70;;;;;;5009395;28;19933;-81
2021/04/14 02:23:52;;;;;;;;;;;18.10;50.60;;;;;;5009014;28;19925;-83
2021/04/14 02:26:19;;;;;;;;;;;18.10;50.60;;;;;;5003531;28;19926;-83
2021/04/14 02:28:46;;;;;;;;;;;18.10;50.70;;;;;;5006127;28;19940;-84
2021/04/14 02:31:13;;;;;;;;;;;18.00;50.70;;;;;;5010037;28;19926;-82
2021/04/14 02:33:40;;;;;;;;;;;18.10;50.70;;;;;;5009870;28;20451;-82
2021/04/14 02:36:06;;;;;;;;;;;18.10;50.70;;;;;;5006446;28;19917;-82
2021/04/14 02:38:34;;;;;;;;;;;18.00;50.70;;;;;;5010966;28;20311;-83
2021/04/14 02:41:01;;;;;;;;;;;18.00;50.60;;;;;;5009742;28;19992;-81
2021/04/14 02:43:27;;;;;;;;;;;18.00;50.60;;;;;;5009507;28;20004;-82
2021/04/14 02:45:53;;;;;;;;;;;18.00;50.60;;;;;;5009265;28;20188;-83
2021/04/14 02:48:23;;;;;;;;;;;18.00;50.60;;;;;;5000591;28;20222;-81
2021/04/14 02:50:49;;;;;;;;;;;18.00;50.50;;;;;;4992366;28;19926;-82
2021/04/14 02:53:15;;;;;;;;;;;18.00;50.50;;;;;;4998618;28;19930;-82
2021/04/14 02:55:42;;;;;;;;;;;18.00;50.50;;;;;;5008346;28;19937;-81
2021/04/14 02:58:08;;;;;;;;;;;18.00;50.50;;;;;;5006311;28;19934;-81
2021/04/14 03:00:35;;;;;;;;;;;18.00;50.50;;;;;;5008486;28;20309;-82
2021/04/14 03:03:01;;;;;;;;;;;18.00;50.50;;;;;;5006626;28;20581;-82
2021/04/14 03:05:31;;;;;;;;;;;18.00;50.50;;;;;;5008072;28;19925;-82
2021/04/14 03:07:58;;;;;;;;;;;17.90;50.50;;;;;;4992619;28;21398;-81
2021/04/14 03:10:24;;;;;;;;;;;17.90;50.40;;;;;;5009508;28;19926;-83
2021/04/14 03:12:51;;;;;;;;;;;17.90;50.50;;;;;;5004324;28;20544;-82
2021/04/14 03:15:25;;;;;;;;;;;17.90;50.50;;;;;;5008885;28;19925;-82
2021/04/14 03:17:51;;;;;;;;;;;17.90;50.50;;;;;;5006334;28;19925;-82
2021/04/14 03:20:18;;;;;;;;;;;17.90;50.40;;;;;;4991419;28;19928;-90
2021/04/14 03:22:44;;;;;;;;;;;17.90;50.40;;;;;;4991646;28;19939;-82
2021/04/14 03:25:11;;;;;;;;;;;17.90;50.40;;;;;;5009530;28;20008;-82
2021/04/14 03:27:38;;;;;;;;;;;17.90;50.50;;;;;;5006289;28;20421;-82
2021/04/14 03:30:06;;;;;;;;;;;17.90;50.50;;;;;;5008480;28;19953;-82
2021/04/14 03:32:32;;;;;;;;;;;17.90;50.50;;;;;;4989625;28;19940;-81
2021/04/14 03:35:03;;;;;;;;;;;17.90;50.50;;;;;;5008717;28;19930;-81
2021/04/14 03:37:29;;;;;;;;;;;17.90;50.50;;;;;;5006728;28;19925;-82
2021/04/14 03:39:55;;;;;;;;;;;17.90;50.40;;;;;;5001872;28;19932;-82
2021/04/14 03:42:23;;;;;;;;;;;17.90;50.50;;;;;;5006664;28;19926;-81
2021/04/14 03:44:52;;;;;;;;;;;17.80;50.40;;;;;;5010148;28;20389;-82
2021/04/14 03:47:19;;;;;;;;;;;17.80;50.40;;;;;;4992554;28;19936;-82
2021/04/14 03:49:45;;;;;;;;;;;17.80;50.40;;;;;;5007747;28;19940;-82
2021/04/14 03:52:12;;;;;;;;;;;17.80;50.40;;;;;;5008016;28;20543;-82
2021/04/14 03:54:38;;;;;;;;;;;17.80;50.40;;;;;;5008949;28;19926;-82
2021/04/14 03:57:07;;;;;;;;;;;17.80;50.40;;;;;;5008387;28;19972;-82
2021/04/14 03:59:34;;;;;;;;;;;17.80;50.50;;;;;;5008740;28;20389;-82
2021/04/14 04:02:00;;;;;;;;;;;17.80;50.40;;;;;;5008287;28;19932;-82
2021/04/14 04:04:29;;;;;;;;;;;17.80;50.40;;;;;;5008957;28;19936;-81
2021/04/14 04:06:55;;;;;;;;;;;17.80;50.30;;;;;;4990407;28;20618;-80
2021/04/14 04:09:21;;;;;;;;;;;17.80;50.40;;;;;;4980059;28;20686;-80
2021/04/14 04:11:49;;;;;;;;;;;17.80;50.30;;;;;;4995759;28;20433;-81
2021/04/14 04:14:15;;;;;;;;;;;17.70;50.30;;;;;;4989387;28;19994;-81
2021/04/14 04:16:42;;;;;;;;;;;17.70;50.30;;;;;;4957470;28;19937;-81
2021/04/14 04:19:11;;;;;;;;;;;17.70;50.30;;;;;;4988585;28;19925;-81
2021/04/14 04:21:38;;;;;;;;;;;17.70;50.20;;;;;;5008940;28;19932;-81
2021/04/14 04:24:04;;;;;;;;;;;17.70;50.30;;;;;;5006149;28;19930;-81
2021/04/14 04:26:30;;;;;;;;;;;17.70;50.20;;;;;;5008463;28;19933;-80
2021/04/14 04:28:56;;;;;;;;;;;17.70;50.20;;;;;;5007493;28;19933;-81
2021/04/14 04:31:23;;;;;;;;;;;17.70;50.20;;;;;;5015458;28;19929;-81
2021/04/14 04:33:49;;;;;;;;;;;17.70;50.20;;;;;;5007239;28;20289;-81
2021/04/14 04:36:15;;;;;;;;;;;17.70;50.20;;;;;;5013077;28;19933;-81
2021/04/14 04:38:41;;;;;;;;;;;17.70;50.10;;;;;;5007253;28;20014;-80
2021/04/14 04:41:08;;;;;;;;;;;17.70;50.10;;;;;;5011425;28;19926;-80
2021/04/14 04:43:34;;;;;;;;;;;17.70;50.10;;;;;;5005054;28;21441;-81
2021/04/14 04:46:00;;;;;;;;;;;17.70;50.10;;;;;;5013313;28;20404;-80
2021/04/14 04:48:27;;;;;;;;;;;17.70;50.10;;;;;;5005413;28;19933;-80
2021/04/14 04:50:54;;;;;;;;;;;17.70;50.10;;;;;;4996305;28;19925;-80
2021/04/14 04:53:21;;;;;;;;;;;17.70;50.20;;;;;;5007535;28;20297;-81
2021/04/14 04:55:48;;;;;;;;;;;17.60;50.00;;;;;;5010360;28;19926;-81
2021/04/14 04:58:14;;;;;;;;;;;17.60;50.00;;;;;;4992378;28;19929;-81
2021/04/14 05:00:42;;;;;;;;;;;17.60;50.00;;;;;;5010962;28;19932;-84
2021/04/14 05:03:08;;;;;;;;;;;17.60;50.00;;;;;;5011229;28;20060;-81
2021/04/14 05:05:36;;;;;;;;;;;17.60;50.00;;;;;;5011158;28;19929;-86
2021/04/14 05:08:06;;;;;;;;;;;17.60;50.00;;;;;;5012541;28;19933;-85
2021/04/14 05:10:32;;;;;;;;;;;17.60;50.10;;;;;;5007815;28;19913;-86
2021/04/14 05:12:59;;;;;;;;;;;17.60;50.00;;;;;;4996221;28;19926;-89
2021/04/14 05:15:27;;;;;;;;;;;17.70;50.00;;;;;;5001632;28;19984;-82
2021/04/14 05:17:57;;;;;;;;;;;17.60;50.00;;;;;;4989560;28;20525;-83
2021/04/14 05:20:23;;;;;;;;;;;17.60;49.90;;;;;;4993628;28;20455;-81
2021/04/14 05:22:49;;;;;;;;;;;17.60;50.00;;;;;;5010583;28;19925;-83
2021/04/14 05:25:17;;;;;;;;;;;17.60;49.90;;;;;;5009015;28;19925;-82
2021/04/14 05:27:44;;;;;;;;;;;17.60;50.00;;;;;;5010535;28;19940;-82
2021/04/14 05:30:11;;;;;;;;;;;17.60;49.90;;;;;;5008789;28;20872;-82
2021/04/14 05:32:37;;;;;;;;;;;17.60;49.90;;;;;;5011687;28;19925;-82
2021/04/14 05:35:05;;;;;;;;;;;17.60;49.90;;;;;;4994321;28;20202;-82
2021/04/14 05:37:31;;;;;;;;;;;17.60;49.80;;;;;;5005235;28;19926;-83
2021/04/14 05:39:57;;;;;;;;;;;17.60;49.80;;;;;;4994589;28;19925;-86
2021/04/14 05:42:23;;;;;;;;;;;17.60;49.80;;;;;;5010861;28;19965;-82
2021/04/14 05:44:52;;;;;;;;;;;17.60;49.80;;;;;;4993015;28;19933;-82
2021/04/14 05:47:51;;;;;;;;;;;17.50;49.70;;;;;;4980455;28;19935;-88
2021/04/14 05:50:20;;;;;;;;;;;17.60;49.80;;;;;;4974581;28;19930;-86
2021/04/14 05:52:47;;;;;;;;;;;17.60;49.80;;;;;;4978776;28;19941;-83
2021/04/14 05:55:13;;;;;;;;;;;17.60;50.40;;;;;;4989642;28;19926;-83
2021/04/14 05:57:39;;;;;;;;;;;17.60;49.80;;;;;;4988701;28;19930;-80
2021/04/14 06:00:07;;;;;;;;;;;17.50;50.40;;;;;;4969146;28;19933;-91
2021/04/14 06:02:36;;;;;;;;;;;17.80;50.70;;;;;;4991751;28;19914;-91
2021/04/14 06:05:03;;;;;;;;;;;18.20;49.80;;;;;;4983784;28;20326;-91
2021/04/14 06:07:33;;;;;;;;;;;18.60;48.80;;;;;;4984095;28;19932;-92
2021/04/14 06:13:34;;;;;;;;;;;19.20;47.60;;;;;;5007717;23;19953;-94
2021/04/14 06:16:01;;;;;;;;;;;19.40;47.70;;;;;;4995618;28;19988;-89
2021/04/14 06:25:06;;;;;;;;;;;20.80;47.40;;;;;;5111285;23;19926;-92
2021/04/14 06:30:21;;;;;;;;;;;21.40;46.20;;;;;;5019680;28;19925;-88
2021/04/14 06:35:15;;;;;;;;;;;21.80;45.40;;;;;;5030969;22;19925;-92
2021/04/14 06:37:42;;;;;;;;;;;21.90;45.20;;;;;;5013137;28;19914;-87
2021/04/14 06:43:04;;;;;;;;;;;22.20;44.50;;;;;;4946119;28;19932;-86
2021/04/14 06:45:32;;;;;;;;;;;22.40;44.00;;;;;;4945885;28;19932;-86
2021/04/14 06:48:07;;;;;;;;;;;22.70;43.70;;;;;;4937186;28;19934;-88
2021/04/14 06:59:33;;;;;;;;;;;23.20;42.80;;;;;;5583140;23;20201;-85
2021/04/14 07:02:08;;;;;;;;;;;23.40;42.60;;;;;;4982738;28;19934;-85
2021/04/14 07:04:44;;;;;;;;;;;23.50;42.30;;;;;;4987379;28;19926;-85
2021/04/14 07:07:13;;;;;;;;;;;23.60;42.10;;;;;;4986145;28;19925;-83
2021/04/14 07:09:42;;;;;;;;;;;23.70;41.80;;;;;;4985353;28;19925;-83
2021/04/14 07:15:43;;;;;;;;;;;24.00;41.60;;;;;;5332457;23;19929;-89
2021/04/14 07:18:09;;;;;;;;;;;24.10;41.20;;;;;;4989201;28;20338;-89
2021/04/14 07:20:42;;;;;;;;;;;24.30;41.00;;;;;;4994283;28;19929;-87
2021/04/14 07:23:12;;;;;;;;;;;24.30;40.90;;;;;;4976729;28;20020;-88
2021/04/14 07:25:42;;;;;;;;;;;24.40;41.00;;;;;;5005140;28;19926;-88
2021/04/14 07:30:53;;;;;;;;;;;24.70;40.50;;;;;;5738014;23;19956;-89
2021/04/14 07:33:41;;;;;;;;;;;24.70;40.40;;;;;;4987665;28;20326;-90
2021/04/14 07:48:56;;;;;;;;;;;25.20;40.00;;;;;;4959864;23;20339;-90
2021/04/14 07:51:24;;;;;;;;;;;25.30;39.40;;;;;;4933554;29;20707;-84
2021/04/14 07:53:59;;;;;;;;;;;25.40;39.30;;;;;;4909334;29;19930;-84
2021/04/14 07:56:26;;;;;;;;;;;25.50;39.30;;;;;;4927145;29;19927;-83
2021/04/14 07:59:06;;;;;;;;;;;25.60;39.30;;;;;;4922870;29;20419;-85
2021/04/14 08:01:38;;;;;;;;;;;25.60;39.20;;;;;;4892157;29;20306;-85
2021/04/14 08:04:28;;;;;;;;;;;25.60;39.20;;;;;;4924206;29;20389;-88
2021/04/14 08:07:04;;;;;;;;;;;25.70;39.10;;;;;;4922606;29;21029;-90
2021/04/14 08:09:32;;;;;;;;;;;25.80;38.90;;;;;;4887572;29;20394;-86
2021/04/14 08:12:04;;;;;;;;;;;25.90;38.90;;;;;;4931940;29;19934;-89
2021/04/14 08:14:35;;;;;;;;;;;24.90;37.20;;;;;;4930345;29;19934;-88
2021/04/14 08:17:20;;;;;;;;;;;24.20;38.70;;;;;;4929771;29;19934;-86
2021/04/14 08:19:55;;;;;;;;;;;24.00;39.80;;;;;;4913234;29;19934;-86
2021/04/14 08:22:25;;;;;;;;;;;24.90;39.90;;;;;;5471184;23;20327;-85
2021/04/14 08:24:55;;;;;;;;;;;25.40;39.60;;;;;;4926131;29;19927;-85
2021/04/14 08:27:33;;;;;;;;;;;25.60;39.50;;;;;;4910353;29;20522;-84
2021/04/14 08:30:03;;;;;;;;;;;25.70;39.20;;;;;;4920814;29;20013;-80
2021/04/14 08:32:31;;;;;;;;;;;25.80;39.20;;;;;;4911882;29;19945;-85
2021/04/14 08:34:58;;;;;;;;;;;25.90;38.90;;;;;;4924250;29;20104;-82
2021/04/14 08:37:34;;;;;;;;;;;26.00;38.90;;;;;;4926161;29;19927;-87
2021/04/14 08:40:01;;;;;;;;;;;26.10;38.80;;;;;;4922869;29;20499;-84
2021/04/14 08:42:27;;;;;;;;;;;26.10;38.50;;;;;;4926055;29;19931;-88
2021/04/14 08:45:17;;;;;;;;;;;26.20;38.80;;;;;;4929628;29;19933;-84
2021/04/14 08:47:46;;;;;;;;;;;26.20;38.80;;;;;;4913330;29;20136;-84
2021/04/14 08:50:15;;;;;;;;;;;26.30;38.60;;;;;;4929668;29;20018;-86
2021/04/14 08:52:43;;;;;;;;;;;26.40;38.40;;;;;;4923144;29;19950;-85
2021/04/14 08:55:12;;;;;;;;;;;26.40;38.40;;;;;;4912091;29;19938;-87
2021/04/14 08:57:48;;;;;;;;;;;26.50;38.30;;;;;;4909465;29;19927;-85
2021/04/14 09:00:14;;;;;;;;;;;26.50;38.10;;;;;;4908745;29;19934;-85
2021/04/14 09:02:42;;;;;;;;;;;26.60;38.10;;;;;;4922861;29;19942;-84
2021/04/14 09:05:10;;;;;;;;;;;26.60;37.90;;;;;;4928966;29;20006;-89
2021/04/14 09:07:37;;;;;;;;;;;26.20;36.70;;;;;;4908726;29;19935;-85
2021/04/14 09:10:07;;;;;;;;;;;26.00;38.20;;;;;;4913239;29;19937;-85
2021/04/14 09:12:55;;;;;;;;;;;26.50;38.20;;;;;;4908127;29;19934;-85
2021/04/14 09:15:22;;;;;;;;;;;26.70;37.90;;;;;;4915559;29;19926;-86
2021/04/14 09:17:59;;;;;;;;;;;26.90;38.10;;;;;;4923911;29;19926;-86
2021/04/14 09:20:27;;;;;;;;;;;27.00;38.10;;;;;;4922508;29;21169;-85
2021/04/14 09:22:58;;;;;;;;;;;27.30;37.90;;;;;;4922429;29;19931;-87
2021/04/14 09:25:32;;;;;;;;;;;27.30;38.00;;;;;;4923536;29;19962;-86
2021/04/14 09:28:00;;;;;;;;;;;27.30;38.10;;;;;;4906607;29;19934;-83
2021/04/14 09:30:28;;;;;;;;;;;27.30;38.70;;;;;;4918410;29;19938;-83
2021/04/14 09:33:04;;;;;;;;;;;27.40;38.20;;;;;;4906844;29;20341;-83
2021/04/14 09:35:33;;;;;;;;;;;27.40;38.20;;;;;;4906252;29;19982;-83
2021/04/14 09:38:23;;;;;;;;;;;27.50;38.20;;;;;;4925221;29;20281;-84
2021/04/14 09:49:33;;;;;;;;;;;27.70;38.50;;;;;;5290939;23;19935;-84
2021/04/14 09:52:00;;;;;;;;;;;27.70;38.50;;;;;;4910592;29;20270;-85
2021/04/14 09:54:30;;;;;;;;;;;27.70;38.40;;;;;;4926130;29;20427;-82
2021/04/14 09:56:58;;;;;;;;;;;27.80;38.30;;;;;;4910472;29;20303;-83
2021/04/14 10:00:04;;;;;;;;;;;28.00;38.20;;;;;;4903871;29;20813;-86
2021/04/14 10:02:35;;;;;;;;;;;27.70;39.10;;;;;;4913532;29;20346;-91
2021/04/14 10:05:02;;;;;;;;;;;27.10;39.80;;;;;;4898425;29;19951;-82
2021/04/14 10:07:32;;;;;;;;;;;25.90;37.00;;;;;;4913225;29;19934;-94
2021/04/14 10:12:39;;;;;;;;;;;24.30;39.80;;;;;;5364414;23;20303;-92
2021/04/14 10:15:06;;;;;;;;;;;24.00;40.50;;;;;;4921093;29;19934;-93
2021/04/14 10:17:33;;;;;;;;;;;23.70;41.10;;;;;;4912348;29;19927;-93
2021/04/14 10:20:11;;;;;;;;;;;23.60;41.40;;;;;;4919414;29;19927;-91
2021/04/14 10:22:39;;;;;;;;;;;23.40;41.70;;;;;;4916787;29;19927;-90
2021/04/14 10:25:17;;;;;;;;;;;23.20;41.90;;;;;;4919159;29;20299;-90
2021/04/14 10:27:43;;;;;;;;;;;23.10;42.20;;;;;;4910994;29;19938;-91
2021/04/14 10:30:11;;;;;;;;;;;23.00;42.40;;;;;;4919935;29;20504;-90
2021/04/14 10:32:37;;;;;;;;;;;22.90;42.40;;;;;;4919714;29;19978;-91
2021/04/14 10:35:15;;;;;;;;;;;22.80;42.60;;;;;;4903937;29;19927;-90
2021/04/14 10:37:43;;;;;;;;;;;22.70;42.70;;;;;;4917649;29;19973;-91
2021/04/14 10:40:19;;;;;;;;;;;22.70;43.00;;;;;;4926791;29;19935;-92
2021/04/14 10:42:49;;;;;;;;;;;22.60;43.00;;;;;;4906780;29;19931;-94
2021/04/14 10:45:16;;;;;;;;;;;22.50;43.20;;;;;;4934034;29;19926;-94
2021/04/14 10:47:43;;;;;;;;;;;22.40;43.20;;;;;;4919486;29;19957;-93
2021/04/14 10:50:35;;;;;;;;;;;22.30;43.20;;;;;;4915814;29;19993;-93
2021/04/14 10:53:03;;;;;;;;;;;22.30;43.40;;;;;;4902749;28;19930;-90
2021/04/14 10:55:36;;;;;;;;;;;22.20;43.40;;;;;;4916147;29;19922;-89
2021/04/14 10:58:04;;;;;;;;;;;22.20;43.50;;;;;;4934284;28;19942;-93
2021/04/14 11:03:29;;;;;;;;;;;22.10;43.60;;;;;;4912723;29;19938;-84
2021/04/14 11:05:57;;;;;;;;;;;22.20;44.40;;;;;;4930847;29;19926;-84
2021/04/14 11:08:24;;;;;;;;;;;22.30;44.30;;;;;;4928776;28;19931;-84
2021/04/14 11:10:52;;;;;;;;;;;22.30;44.30;;;;;;4906532;28;20036;-86
2021/04/14 11:13:21;;;;;;;;;;;22.30;44.10;;;;;;4910244;29;20406;-87
2021/04/14 11:15:48;;;;;;;;;;;22.30;44.40;;;;;;4927340;28;19957;-86
2021/04/14 11:18:16;;;;;;;;;;;22.30;44.50;;;;;;4919787;29;19989;-86
2021/04/14 11:20:51;;;;;;;;;;;22.30;44.30;;;;;;4914827;29;20414;-93
2021/04/14 11:23:29;;;;;;;;;;;22.30;44.10;;;;;;4897425;29;20047;-90
2021/04/14 11:26:11;;;;;;;;;;;22.30;45.40;;;;;;4918140;29;19934;-91
2021/04/14 11:32:28;;;;;;;;;;;22.30;44.40;;;;;;5073672;23;19934;-84
2021/04/14 11:35:01;;;;;;;;;;;22.30;44.30;;;;;;4927832;29;19974;-86
2021/04/14 11:37:47;;;;;;;;;;;22.30;44.30;;;;;;4927778;29;19935;-83
2021/04/14 11:40:19;;;;;;;;;;;22.30;44.30;;;;;;4905731;29;20323;-89
2021/04/14 11:42:53;;;;;;;;;;;22.20;44.30;;;;;;4911829;29;19992;-85
2021/04/14 11:45:38;;;;;;;;;;;22.30;45.20;;;;;;4923888;28;19934;-84
2021/04/14 11:48:10;;;;;;;;;;;22.30;44.80;;;;;;4892881;29;19969;-83
2021/04/14 11:50:38;;;;;;;;;;;22.30;44.90;;;;;;4929700;29;19927;-87
2021/04/14 11:53:24;;;;;;;;;;;22.30;45.50;;;;;;4914253;29;19958;-87
2021/04/14 11:55:50;;;;;;;;;;;22.20;44.70;;;;;;4921576;29;19926;-88
2021/04/14 11:58:19;;;;;;;;;;;22.20;44.60;;;;;;4915562;29;20188;-88
2021/04/14 12:00:48;;;;;;;;;;;22.20;44.10;;;;;;4928822;29;19927;-91
2021/04/14 12:03:18;;;;;;;;;;;22.10;43.90;;;;;;4913474;29;19927;-92
2021/04/14 12:05:48;;;;;;;;;;;22.10;43.90;;;;;;4916890;29;19935;-91
2021/04/14 12:08:15;;;;;;;;;;;22.10;44.00;;;;;;4914565;29;19975;-91
2021/04/14 12:10:46;;;;;;;;;;;22.00;44.00;;;;;;4898372;29;19927;-91
2021/04/14 12:13:13;;;;;;;;;;;22.00;44.20;;;;;;4910724;29;19927;-90
2021/04/14 12:15:39;;;;;;;;;;;21.90;44.10;;;;;;4915514;29;19934;-88
2021/04/14 12:18:05;;;;;;;;;;;21.90;44.20;;;;;;4909362;29;20001;-92
2021/04/14 12:20:33;;;;;;;;;;;21.80;44.20;;;;;;4927180;29;21264;-88
2021/04/14 12:22:59;;;;;;;;;;;21.70;44.10;;;;;;4909134;29;19937;-87
2021/04/14 12:25:26;;;;;;;;;;;21.70;43.90;;;;;;4907710;29;20392;-91
2021/04/14 12:27:52;;;;;;;;;;;21.70;43.70;;;;;;4909636;29;19941;-85
2021/04/14 12:33:04;;;;;;;;;;;21.70;46.70;;;;;;4912857;23;19938;-86
2021/04/14 12:35:50;;;;;;;;;;;21.70;42.50;;;;;;4837005;29;19931;-86
2021/04/14 12:38:27;;;;;;;;;;;21.70;42.70;;;;;;4868402;29;20434;-85
2021/04/14 12:44:48;;;;;;;;;;;21.50;38.60;;;;;;4915932;23;19941;-83
2021/04/14 12:47:15;;;;;;;;;;;21.40;38.70;;;;;;4910220;29;19936;-88
2021/04/14 12:53:06;;;;;;;;;;;21.00;36.50;;;;;;4792492;29;19960;-89
2021/04/14 12:55:38;;;;;;;;;;;21.20;36.40;;;;;;4868564;29;20444;-89
2021/04/14 12:58:06;;;;;;;;;;;21.10;35.50;;;;;;4866226;29;20007;-87
2021/04/14 13:00:32;;;;;;;;;;;21.30;36.20;;;;;;4870313;29;19971;-87
2021/04/14 13:03:02;;;;;;;;;;;21.30;36.60;;;;;;4853524;29;20459;-88
2021/04/14 13:05:29;;;;;;;;;;;21.40;36.70;;;;;;4872411;29;20097;-90
2021/04/14 13:08:30;;;;;;;;;;;21.50;38.10;;;;;;4844993;29;19988;-91
2021/04/14 13:11:01;;;;;;;;;;;21.50;37.10;;;;;;4861518;29;20439;-85
2021/04/14 13:13:29;;;;;;;;;;;21.40;37.40;;;;;;4873166;29;20315;-90
2021/04/14 13:15:58;;;;;;;;;;;21.40;37.70;;;;;;4859147;29;19969;-87
2021/04/14 13:18:24;;;;;;;;;;;21.50;38.60;;;;;;4858605;29;20015;-91
2021/04/14 13:20:56;;;;;;;;;;;21.50;37.70;;;;;;4861995;29;19935;-90
2021/04/14 13:23:30;;;;;;;;;;;21.40;37.50;;;;;;4875568;29;19935;-89
2021/04/14 13:26:00;;;;;;;;;;;21.40;36.90;;;;;;4910612;29;19927;-90
2021/04/14 13:28:31;;;;;;;;;;;21.30;36.50;;;;;;4931132;29;20009;-87
2021/04/14 13:31:16;;;;;;;;;;;21.20;35.20;;;;;;4933081;29;21293;-93
2021/04/14 13:33:46;;;;;;;;;;;21.30;35.20;;;;;;4931880;29;19927;-90
2021/04/14 13:36:24;;;;;;;;;;;21.20;35.20;;;;;;4924436;29;19934;-87
2021/04/14 13:38:57;;;;;;;;;;;21.20;35.30;;;;;;4926349;29;19938;-87
2021/04/14 13:41:33;;;;;;;;;;;21.10;33.20;;;;;;4930888;29;19931;-83
2021/04/14 13:44:06;;;;;;;;;;;21.00;34.50;;;;;;4911063;29;21705;-82
2021/04/14 13:46:36;;;;;;;;;;;21.00;35.30;;;;;;4931098;29;21475;-84
2021/04/14 13:57:31;;;;;;;;;;;20.90;35.20;;;;;;5212071;23;19978;-94
2021/04/14 14:00:07;;;;;;;;;;;20.90;34.60;;;;;;4936901;29;19937;-88
2021/04/14 14:02:37;;;;;;;;;;;21.00;35.00;;;;;;4918277;29;19950;-88
2021/04/14 14:05:08;;;;;;;;;;;21.10;36.20;;;;;;4918214;29;19934;-94
2021/04/14 14:08:00;;;;;;;;;;;21.30;36.90;;;;;;4899201;29;20406;-90
2021/04/14 14:10:29;;;;;;;;;;;21.30;37.20;;;;;;4917101;29;19935;-91
2021/04/14 14:13:01;;;;;;;;;;;21.20;36.30;;;;;;4917620;29;19927;-93
2021/04/14 14:15:29;;;;;;;;;;;21.30;36.60;;;;;;4916801;29;19931;-86
2021/04/14 14:17:55;;;;;;;;;;;21.30;36.40;;;;;;4919852;29;20511;-89
2021/04/14 14:20:26;;;;;;;;;;;21.30;36.20;;;;;;4928859;29;22515;-91
2021/04/14 14:23:03;;;;;;;;;;;21.40;36.40;;;;;;4905020;29;19931;-92
2021/04/14 14:25:30;;;;;;;;;;;21.40;35.60;;;;;;4915978;29;19931;-92
2021/04/14 14:28:02;;;;;;;;;;;21.50;36.40;;;;;;4911687;29;19931;-91
2021/04/14 14:30:34;;;;;;;;;;;21.50;36.60;;;;;;4903246;29;19935;-94
2021/04/14 14:33:00;;;;;;;;;;;21.50;36.70;;;;;;4901773;29;19931;-95
2021/04/14 14:54:54;;;;;;;;;;;21.60;35.70;;;;;;5919370;23;19922;-94
2021/04/14 14:57:24;;;;;;;;;;;21.60;35.80;;;;;;4895431;29;19931;-88
2021/04/14 15:00:18;;;;;;;;;;;21.70;36.30;;;;;;4890888;29;20458;-87
2021/04/14 15:02:45;;;;;;;;;;;21.60;36.10;;;;;;4891008;29;19931;-92
2021/04/14 15:05:12;;;;;;;;;;;21.70;36.10;;;;;;4911131;29;19935;-92
2021/04/14 15:07:40;;;;;;;;;;;21.70;36.40;;;;;;4895775;29;19931;-90
2021/04/14 15:10:13;;;;;;;;;;;21.80;37.90;;;;;;4902636;29;19934;-90
2021/04/14 15:12:39;;;;;;;;;;;21.80;36.80;;;;;;4913028;29;19938;-90
2021/04/14 15:15:09;;;;;;;;;;;21.70;36.10;;;;;;4887168;29;19990;-85
2021/04/14 15:17:46;;;;;;;;;;;21.80;37.50;;;;;;4887932;29;19938;-89
2021/04/14 15:20:19;;;;;;;;;;;21.80;36.80;;;;;;4903670;29;19931;-90
2021/04/14 15:26:25;;;;;;;;;;;21.90;37.40;;;;;;4911343;29;20359;-85
2021/04/14 15:29:05;;;;;;;;;;;21.80;35.70;;;;;;4911720;29;19935;-85
2021/04/14 15:47:32;;;;;;;;;;;20.90;31.60;;;;;;5253941;23;19981;-94
2021/04/14 15:50:03;;;;;;;;;;;20.80;32.70;;;;;;4911733;29;19946;-92
2021/04/14 15:52:34;;;;;;;;;;;20.70;31.70;;;;;;4904709;29;19931;-87
2021/04/14 15:55:04;;;;;;;;;;;20.80;32.40;;;;;;4910544;29;19942;-88
2021/04/14 15:57:30;;;;;;;;;;;20.70;32.00;;;;;;4932027;29;20540;-85
2021/04/14 15:59:58;;;;;;;;;;;20.80;31.60;;;;;;4929530;29;20328;-95
2021/04/14 16:02:28;;;;;;;;;;;20.60;30.80;;;;;;4916581;29;19927;-93
2021/04/14 16:04:57;;;;;;;;;;;20.50;30.70;;;;;;4891058;29;20010;-93
2021/04/14 16:12:54;;;;;;;;;;;20.50;31.90;;;;;;4915906;23;19941;-86
2021/04/14 16:44:37;;;;;;;;;;;20.90;40.40;;;;;;5727555;23;19927;-84
2021/04/14 16:47:09;;;;;;;;;;;20.80;40.60;;;;;;4936169;23;19938;31
2021/04/14 16:49:36;;;;;;;;;;;20.80;40.80;;;;;;4897577;29;19927;-89
2021/04/14 16:52:02;;;;;;;;;;;20.80;41.00;;;;;;4913535;29;19915;-93
2021/04/14 16:54:28;;;;;;;;;;;20.80;41.20;;;;;;4916096;29;19934;-89
2021/04/14 16:56:55;;;;;;;;;;;20.80;41.30;;;;;;4908798;29;20293;-90
2021/04/14 16:59:22;;;;;;;;;;;20.80;41.40;;;;;;4913448;29;19927;-90
2021/04/14 17:01:49;;;;;;;;;;;20.80;41.50;;;;;;4912917;29;20026;-88
2021/04/14 17:04:15;;;;;;;;;;;20.80;41.70;;;;;;4908367;29;19935;-91
2021/04/14 17:06:41;;;;;;;;;;;20.80;41.80;;;;;;4909724;29;20513;-91